createdAt,value
2018-09-26T00:00:34.175Z,1.73
2018-09-26T00:03:08.479Z,3.47
2018-09-26T00:05:36.362Z,2.73
2018-09-26T00:08:03.936Z,1.33
2018-09-26T00:10:33.107Z,4.67
2018-09-26T00:13:01.326Z,5.23
2018-09-26T00:15:29.143Z,3.73
2018-09-26T00:17:56.898Z,1.87
2018-09-26T00:20:25.114Z,2.67
2018-09-26T00:22:52.739Z,3.60
2018-09-26T00:25:21.317Z,3.97
2018-09-26T00:27:49.051Z,3.80
2018-09-26T00:30:17.908Z,4.10
2018-09-26T00:32:47.826Z,4.13
2018-09-26T00:35:17.409Z,2.27
2018-09-26T00:37:45.020Z,3.53
2018-09-26T00:40:12.681Z,4.77
2018-09-26T00:42:40.312Z,3.67
2018-09-26T00:45:08.219Z,2.07
2018-09-26T00:47:35.840Z,3.33
2018-09-26T00:50:03.471Z,5.80
2018-09-26T00:52:31.532Z,2.73
2018-09-26T00:54:59.094Z,5.13
2018-09-26T00:57:26.649Z,2.20
2018-09-26T00:59:54.414Z,2.13
2018-09-26T01:02:21.997Z,1.23
2018-09-26T01:04:49.557Z,0.50
2018-09-26T01:07:18.141Z,3.97
2018-09-26T01:09:45.682Z,2.40
2018-09-26T01:12:13.381Z,2.27
2018-09-26T01:14:40.989Z,4.00
2018-09-26T01:17:08.712Z,3.60
2018-09-26T01:19:36.338Z,5.40
2018-09-26T01:22:03.920Z,2.10
2018-09-26T01:24:31.475Z,2.07
2018-09-26T01:26:59.851Z,1.40
2018-09-26T01:29:27.438Z,1.57
2018-09-26T01:31:55.007Z,2.50
2018-09-26T01:34:22.644Z,1.20
2018-09-26T01:36:50.194Z,1.83
2018-09-26T01:39:18.210Z,1.60
2018-09-26T01:41:45.875Z,1.77
2018-09-26T01:44:13.407Z,2.63
2018-09-26T01:46:41.020Z,0.90
2018-09-26T01:49:08.763Z,1.83
2018-09-26T01:51:36.356Z,2.03
2018-09-26T01:54:07.217Z,2.00
2018-09-26T01:56:34.778Z,1.90
2018-09-26T01:59:02.758Z,1.50
2018-09-26T02:01:30.502Z,1.23
2018-09-26T02:03:58.064Z,1.33
2018-09-26T02:06:25.638Z,1.63
2018-09-26T02:08:53.239Z,2.20
2018-09-26T02:11:20.869Z,4.63
2018-09-26T02:13:48.499Z,1.27
2018-09-26T02:16:17.162Z,3.27
2018-09-26T02:18:44.910Z,2.27
2018-09-26T02:21:12.529Z,1.60
2018-09-26T02:23:40.105Z,3.50
2018-09-26T02:26:07.672Z,1.37
2018-09-26T02:28:35.249Z,2.57
2018-09-26T02:31:03.139Z,2.47
2018-09-26T02:33:30.744Z,1.13
2018-09-26T02:35:58.340Z,2.87
2018-09-26T02:38:26.029Z,0.70
2018-09-26T02:40:53.603Z,0.97
2018-09-26T02:43:21.172Z,0.90
2018-09-26T02:45:48.762Z,1.47
2018-09-26T02:48:23.454Z,1.20
2018-09-26T02:50:51.203Z,1.17
2018-09-26T02:53:18.896Z,1.60
2018-09-26T02:55:46.661Z,3.73
2018-09-26T02:58:14.254Z,2.37
2018-09-26T03:00:41.957Z,5.03
2018-09-26T03:03:10.280Z,3.97
2018-09-26T03:05:37.938Z,6.43
2018-09-26T03:08:06.178Z,3.53
2018-09-26T03:10:37.667Z,3.00
2018-09-26T03:13:05.796Z,3.10
2018-09-26T03:15:33.597Z,5.77
2018-09-26T03:18:01.319Z,5.80
2018-09-26T03:20:29.549Z,7.77
2018-09-26T03:22:57.280Z,7.07
2018-09-26T03:25:25.152Z,4.83
2018-09-26T03:27:52.732Z,3.63
2018-09-26T03:30:20.299Z,5.60
2018-09-26T03:32:47.857Z,4.33
2018-09-26T03:35:16.998Z,7.90
2018-09-26T03:37:44.578Z,11.50
2018-09-26T03:40:12.268Z,13.27
2018-09-26T03:42:39.816Z,8.53
2018-09-26T03:45:07.687Z,14.40
2018-09-26T03:47:35.284Z,14.67
2018-09-26T03:50:02.902Z,14.03
2018-09-26T03:52:30.443Z,7.63
2018-09-26T03:54:58.436Z,2.43
2018-09-26T03:57:26.056Z,3.93
2018-09-26T03:59:53.615Z,3.57
2018-09-26T04:02:21.179Z,3.00
2018-09-26T04:04:48.814Z,5.17
2018-09-26T04:07:17.783Z,4.43
2018-09-26T04:09:45.324Z,5.07
2018-09-26T04:12:12.879Z,2.70
2018-09-26T04:14:40.459Z,2.73
2018-09-26T04:17:08.044Z,3.10
2018-09-26T04:19:35.856Z,9.30
2018-09-26T04:22:03.464Z,3.13
2018-09-26T04:24:31.064Z,3.87
2018-09-26T04:26:59.316Z,1.53
2018-09-26T04:29:26.666Z,5.57
2018-09-26T04:31:54.412Z,2.50
2018-09-26T04:34:22.075Z,6.10
2018-09-26T04:36:49.639Z,0.83
2018-09-26T04:39:18.450Z,3.93
2018-09-26T04:41:46.099Z,5.67
2018-09-26T04:44:13.627Z,5.30
2018-09-26T04:46:41.537Z,4.93
2018-09-26T04:49:09.177Z,2.90
2018-09-26T04:51:37.854Z,2.67
2018-09-26T04:54:06.078Z,9.60
2018-09-26T04:56:33.754Z,5.00
2018-09-26T04:59:02.230Z,4.67
2018-09-26T05:01:30.200Z,5.10
2018-09-26T05:03:58.027Z,6.93
2018-09-26T05:06:25.639Z,3.17
2018-09-26T05:08:53.385Z,2.83
2018-09-26T05:11:21.074Z,4.23
2018-09-26T05:13:48.671Z,4.20
2018-09-26T05:16:17.598Z,2.50
2018-09-26T05:18:45.211Z,1.30
2018-09-26T05:21:12.959Z,2.93
2018-09-26T05:23:40.715Z,3.53
2018-09-26T05:26:08.375Z,4.93
2018-09-26T05:28:37.288Z,6.33
2018-09-26T05:31:05.405Z,3.13
2018-09-26T05:33:33.253Z,2.80
2018-09-26T05:36:01.470Z,2.30
2018-09-26T05:38:29.170Z,3.73
2018-09-26T05:40:56.784Z,4.80
2018-09-26T05:43:24.367Z,2.70
2018-09-26T05:45:51.920Z,3.00
2018-09-26T05:48:19.504Z,4.27
2018-09-26T05:50:47.157Z,3.90
2018-09-26T05:53:14.734Z,8.23
2018-09-26T05:55:42.379Z,7.23
2018-09-26T05:58:10.422Z,4.67
2018-09-26T06:00:38.017Z,3.57
2018-09-26T06:03:05.886Z,4.23
2018-09-26T06:05:33.624Z,4.00
2018-09-26T06:08:01.684Z,2.00
2018-09-26T06:10:29.402Z,2.47
2018-09-26T06:12:57.058Z,5.57
2018-09-26T06:15:24.597Z,4.70
2018-09-26T06:17:52.283Z,6.47
2018-09-26T06:20:19.899Z,2.10
2018-09-26T06:22:47.475Z,5.37
2018-09-26T06:25:16.808Z,6.57
2018-09-26T06:27:44.458Z,4.77
2018-09-26T06:30:12.013Z,2.37
2018-09-26T06:32:39.673Z,2.70
2018-09-26T06:35:07.790Z,3.00
2018-09-26T06:37:35.315Z,2.83
2018-09-26T06:40:02.993Z,3.13
2018-09-26T06:42:30.769Z,2.30
2018-09-26T06:44:58.803Z,5.07
2018-09-26T06:47:26.823Z,2.53
2018-09-26T06:49:54.784Z,3.77
2018-09-26T06:52:22.790Z,1.90
2018-09-26T06:54:50.663Z,4.97
2018-09-26T06:57:18.927Z,3.93
2018-09-26T06:59:46.924Z,2.70
2018-09-26T07:02:14.797Z,3.63
2018-09-26T07:04:42.584Z,4.13
2018-09-26T07:07:10.482Z,4.37
2018-09-26T07:09:38.351Z,4.20
2018-09-26T07:12:06.885Z,4.73
2018-09-26T07:14:34.849Z,4.63
2018-09-26T07:17:03.092Z,2.17
2018-09-26T07:19:31.394Z,7.87
2018-09-26T07:21:59.160Z,11.07
2018-09-26T07:24:27.249Z,17.63
2018-09-26T07:26:55.092Z,10.57
2018-09-26T07:29:23.090Z,9.87
2018-09-26T07:31:51.009Z,5.63
2018-09-26T07:34:23.364Z,6.33
2018-09-26T07:36:51.588Z,5.27
2018-09-26T07:39:19.427Z,1.83
2018-09-26T07:41:47.260Z,3.37
2018-09-26T07:44:16.829Z,3.63
2018-09-26T07:46:44.620Z,3.63
2018-09-26T07:49:12.884Z,3.93
2018-09-26T07:51:40.819Z,4.10
2018-09-26T07:54:08.850Z,2.17
2018-09-26T07:56:36.702Z,5.57
2018-09-26T07:59:05.499Z,5.33
2018-09-26T08:01:33.264Z,7.30
2018-09-26T08:04:01.259Z,3.63
2018-09-26T08:06:29.274Z,2.43
2018-09-26T08:08:57.119Z,4.03
2018-09-26T08:11:25.077Z,4.20
2018-09-26T08:13:52.923Z,3.30
2018-09-26T08:16:20.906Z,4.43
2018-09-26T08:18:48.892Z,3.07
2018-09-26T08:21:17.808Z,1.97
2018-09-26T08:23:45.628Z,1.30
2018-09-26T08:26:13.555Z,1.47
2018-09-26T08:28:41.400Z,2.60
2018-09-26T08:31:09.212Z,3.43
2018-09-26T08:33:37.149Z,1.53
2018-09-26T08:36:05.447Z,2.30
2018-09-26T08:38:33.423Z,2.93
2018-09-26T08:41:01.505Z,3.57
2018-09-26T08:43:29.450Z,2.63
2018-09-26T08:45:57.380Z,3.07
2018-09-26T08:48:25.295Z,2.23
2018-09-26T08:50:53.271Z,4.27
2018-09-26T08:53:21.216Z,2.57
2018-09-26T08:55:49.166Z,2.80
2018-09-26T08:58:17.793Z,2.97
2018-09-26T09:00:51.260Z,2.37
2018-09-26T09:03:19.272Z,2.13
2018-09-26T09:05:47.443Z,2.17
2018-09-26T09:08:16.929Z,1.87
2018-09-26T09:10:44.799Z,4.40
2018-09-26T09:13:13.346Z,2.47
2018-09-26T09:15:41.502Z,2.27
2018-09-26T09:18:09.695Z,2.33
2018-09-26T09:20:37.655Z,2.27
2018-09-26T09:23:05.732Z,2.60
2018-09-26T09:25:33.603Z,3.83
2018-09-26T09:28:01.600Z,13.63
2018-09-26T09:30:29.765Z,3.67
2018-09-26T09:32:58.069Z,4.83
2018-09-26T09:35:25.952Z,2.03
2018-09-26T09:37:54.053Z,2.90
2018-09-26T09:40:21.868Z,2.73
2018-09-26T09:42:49.710Z,2.60
2018-09-26T09:45:19.146Z,2.13
2018-09-26T09:47:47.011Z,2.57
2018-09-26T09:50:14.882Z,2.93
2018-09-26T09:52:42.707Z,3.67
2018-09-26T09:55:10.783Z,3.63
2018-09-26T09:57:38.536Z,2.27
2018-09-26T10:00:07.081Z,4.13
2018-09-26T10:02:35.072Z,2.40
2018-09-26T10:05:03.483Z,4.00
2018-09-26T10:07:31.329Z,2.03
2018-09-26T10:09:59.577Z,2.40
2018-09-26T10:12:27.567Z,3.43
2018-09-26T10:14:55.564Z,2.07
2018-09-26T10:17:23.407Z,2.40
2018-09-26T10:19:51.289Z,2.83
2018-09-26T10:22:19.496Z,1.83
2018-09-26T10:24:47.566Z,2.83
2018-09-26T10:27:16.898Z,2.20
2018-09-26T10:29:44.843Z,6.07
2018-09-26T10:32:13.059Z,3.77
2018-09-26T10:34:41.003Z,3.80
2018-09-26T10:37:09.056Z,3.37
2018-09-26T10:39:36.917Z,4.17
2018-09-26T10:42:04.873Z,4.97
2018-09-26T10:44:32.799Z,4.37
2018-09-26T10:47:00.606Z,2.83
2018-09-26T10:49:28.535Z,3.80
2018-09-26T10:51:56.439Z,3.17
2018-09-26T10:54:24.370Z,1.83
2018-09-26T10:56:52.248Z,2.90
2018-09-26T10:59:20.597Z,4.97
2018-09-26T11:01:48.410Z,3.47
2018-09-26T11:04:18.275Z,2.03
2018-09-26T11:06:46.005Z,1.73
2018-09-26T11:09:13.919Z,3.63
2018-09-26T11:11:41.849Z,2.83
2018-09-26T11:14:12.202Z,3.97
2018-09-26T11:16:40.149Z,1.50
2018-09-26T11:19:08.256Z,2.98
2018-09-26T11:21:36.201Z,2.87
2018-09-26T11:24:04.175Z,3.33
2018-09-26T11:26:32.247Z,1.32
2018-09-26T11:28:59.980Z,1.30
2018-09-26T11:31:27.749Z,2.63
2018-09-26T11:33:55.669Z,2.55
2018-09-26T11:36:23.744Z,1.92
2018-09-26T11:38:51.696Z,4.03
2018-09-26T11:41:19.573Z,2.45
2018-09-26T11:43:47.412Z,2.52
2018-09-26T11:46:17.189Z,3.20
2018-09-26T11:48:45.037Z,2.35
2018-09-26T11:51:14.520Z,3.17
2018-09-26T11:53:42.500Z,4.62
2018-09-26T11:56:10.803Z,2.33
2018-09-26T11:58:38.573Z,2.70
2018-09-26T12:01:06.957Z,2.20
2018-09-26T12:03:34.901Z,2.98
2018-09-26T12:06:02.910Z,0.93
2018-09-26T12:08:31.188Z,2.37
2018-09-26T12:10:59.243Z,2.42
2018-09-26T12:13:27.311Z,3.55
2018-09-26T12:15:55.394Z,2.15
2018-09-26T12:18:24.050Z,2.67
2018-09-26T12:20:55.780Z,3.10
2018-09-26T12:23:23.738Z,2.77
2018-09-26T12:25:51.450Z,3.65
2018-09-26T12:28:19.658Z,5.10
2018-09-26T12:30:47.546Z,2.35
2018-09-26T12:33:15.371Z,1.37
2018-09-26T12:35:44.909Z,2.75
2018-09-26T12:38:13.271Z,1.50
2018-09-26T12:40:41.172Z,1.95
2018-09-26T12:43:08.919Z,5.80
2018-09-26T12:45:36.672Z,2.30
2018-09-26T12:48:04.713Z,1.32
2018-09-26T12:50:32.903Z,8.08
2018-09-26T12:53:00.973Z,1.20
2018-09-26T12:55:28.788Z,1.92
2018-09-26T12:57:56.650Z,1.77
2018-09-26T13:00:24.600Z,3.12
2018-09-26T13:02:52.387Z,2.55
2018-09-26T13:05:20.336Z,1.15
2018-09-26T13:07:48.185Z,1.47
2018-09-26T13:10:17.263Z,1.17
2018-09-26T13:12:45.126Z,1.57
2018-09-26T13:15:13.477Z,1.95
2018-09-26T13:17:41.571Z,1.20
2018-09-26T13:20:09.419Z,2.45
2018-09-26T13:22:37.328Z,2.02
2018-09-26T13:25:05.328Z,1.47
2018-09-26T13:27:33.351Z,5.12
2018-09-26T13:30:01.388Z,6.10
2018-09-26T13:32:29.204Z,1.57
2018-09-26T13:34:59.052Z,3.17
2018-09-26T13:37:26.869Z,2.62
2018-09-26T13:39:55.051Z,1.70
2018-09-26T13:42:23.265Z,1.60
2018-09-26T13:44:50.994Z,2.62
2018-09-26T13:47:19.024Z,1.75
2018-09-26T13:49:47.773Z,1.35
2018-09-26T13:52:16.776Z,2.20
2018-09-26T13:54:44.860Z,1.27
2018-09-26T13:57:12.999Z,2.17
2018-09-26T13:59:40.820Z,1.13
2018-09-26T14:02:08.639Z,3.43
2018-09-26T14:04:36.346Z,1.13
2018-09-26T14:07:04.235Z,2.10
2018-09-26T14:09:32.162Z,1.43
2018-09-26T14:12:00.011Z,1.57
2018-09-26T14:17:30.912Z,1.17
2018-09-26T14:19:58.486Z,1.10
2018-09-26T14:22:26.061Z,1.07
2018-09-26T14:24:53.607Z,2.97
2018-09-26T14:27:24.675Z,0.80
2018-09-26T14:29:52.340Z,0.90
2018-09-26T14:32:19.921Z,2.07
2018-09-26T14:34:48.056Z,1.10
2018-09-26T14:37:15.812Z,1.77
2018-09-26T14:39:43.600Z,0.80
2018-09-26T14:42:11.295Z,1.27
2018-09-26T14:44:38.986Z,1.63
2018-09-26T14:47:07.933Z,1.17
2018-09-26T14:49:35.646Z,1.37
2018-09-26T14:52:03.403Z,0.73
2018-09-26T14:54:31.075Z,2.10
2018-09-26T14:56:58.926Z,0.77
2018-09-26T14:59:29.028Z,2.03
2018-09-26T15:01:56.725Z,2.57
2018-09-26T15:04:24.269Z,0.80
2018-09-26T15:06:51.906Z,3.60
2018-09-26T15:09:19.552Z,0.70
2018-09-26T15:11:47.137Z,1.83
2018-09-26T15:14:14.905Z,0.87
2018-09-26T15:16:42.566Z,2.53
2018-09-26T15:19:10.331Z,0.70
2018-09-26T15:21:38.005Z,1.20
2018-09-26T15:24:05.664Z,1.13
2018-09-26T15:26:33.435Z,0.63
2018-09-26T15:29:01.051Z,1.23
2018-09-26T15:31:29.035Z,3.23
2018-09-26T15:33:56.613Z,0.90
2018-09-26T15:36:24.262Z,0.70
2018-09-26T15:38:51.830Z,3.53
2018-09-26T15:41:19.559Z,0.97
2018-09-26T15:43:47.314Z,1.93
2018-09-26T15:46:14.970Z,2.53
2018-09-26T15:48:43.081Z,1.07
2018-09-26T15:51:10.771Z,1.37
2018-09-26T15:53:38.531Z,0.97
2018-09-26T15:56:06.241Z,1.20
2018-09-26T15:58:34.160Z,2.00
2018-09-26T16:01:01.805Z,0.73
2018-09-26T16:03:29.538Z,1.90
2018-09-26T16:05:57.241Z,1.70
2018-09-26T16:08:25.017Z,1.23
2018-09-26T16:10:52.697Z,1.07
2018-09-26T16:13:21.305Z,0.80
2018-09-26T16:15:48.945Z,0.93
2018-09-26T16:18:16.626Z,0.53
2018-09-26T16:20:44.255Z,1.87
2018-09-26T16:23:11.891Z,2.23
2018-09-26T16:25:39.630Z,4.20
2018-09-26T16:28:07.433Z,0.57
2018-09-26T16:30:35.146Z,1.57
2018-09-26T16:33:02.768Z,1.87
2018-09-26T16:35:30.394Z,1.53
2018-09-26T16:37:58.035Z,1.73
2018-09-26T16:40:25.678Z,0.70
2018-09-26T16:42:53.370Z,0.67
2018-09-26T16:45:21.211Z,0.60
2018-09-26T16:47:48.759Z,2.63
2018-09-26T16:50:17.468Z,1.23
2018-09-26T16:52:45.191Z,1.23
2018-09-26T16:55:12.969Z,1.50
2018-09-26T16:57:40.761Z,3.03
2018-09-26T17:00:08.430Z,1.60
2018-09-26T17:02:36.071Z,1.30
2018-09-26T17:05:04.980Z,0.87
2018-09-26T17:07:32.829Z,1.93
2018-09-26T17:10:00.572Z,2.10
2018-09-26T17:12:28.204Z,2.40
2018-09-26T17:14:55.948Z,1.60
2018-09-26T17:17:23.618Z,5.27
2018-09-26T17:19:51.231Z,2.13
2018-09-26T17:22:18.916Z,3.77
2018-09-26T17:24:46.647Z,5.63
2018-09-26T17:27:14.462Z,2.83
2018-09-26T17:29:42.086Z,2.83
2018-09-26T17:32:09.734Z,2.03
2018-09-26T17:34:37.483Z,2.40
2018-09-26T17:37:05.002Z,2.83
2018-09-26T17:39:33.708Z,4.20
2018-09-26T17:42:01.420Z,3.67
2018-09-26T17:44:29.188Z,4.83
2018-09-26T17:46:56.923Z,1.40
2018-09-26T17:49:24.724Z,2.83
2018-09-26T17:51:52.415Z,4.53
2018-09-26T17:54:20.168Z,5.10
2018-09-26T17:56:47.824Z,5.77
2018-09-26T17:59:15.556Z,7.07
2018-09-26T18:01:43.169Z,4.47
2018-09-26T18:04:11.017Z,6.60
2018-09-26T18:06:38.651Z,5.87
2018-09-26T18:09:08.839Z,6.77
2018-09-26T18:11:37.241Z,6.80
2018-09-26T18:14:04.884Z,6.77
2018-09-26T18:16:32.475Z,4.80
2018-09-26T18:19:00.064Z,8.53
2018-09-26T18:21:27.866Z,7.53
2018-09-26T18:23:55.479Z,3.50
2018-09-26T18:26:23.053Z,2.80
2018-09-26T18:28:50.625Z,4.53
2018-09-26T18:31:18.229Z,5.83
2018-09-26T18:33:45.812Z,5.00
2018-09-26T18:36:13.440Z,3.97
2018-09-26T18:38:41.154Z,3.70
2018-09-26T18:41:09.168Z,3.90
2018-09-26T18:43:36.763Z,5.30
2018-09-26T18:46:06.408Z,4.50
2018-09-26T18:48:34.099Z,5.60
2018-09-26T18:51:01.769Z,2.93
2018-09-26T18:53:29.276Z,7.97
2018-09-26T18:55:56.934Z,2.47
2018-09-26T18:58:24.560Z,3.07
2018-09-26T19:00:52.171Z,3.47
2018-09-26T19:03:21.021Z,4.33
2018-09-26T19:05:48.677Z,2.80
2018-09-26T19:08:16.730Z,5.67
2018-09-26T19:10:44.651Z,4.53
2018-09-26T19:13:12.251Z,3.77
2018-09-26T19:15:39.988Z,4.50
2018-09-26T19:18:07.855Z,5.03
2018-09-26T19:20:35.447Z,5.93
2018-09-26T19:23:03.083Z,3.93
2018-09-26T19:25:30.664Z,2.67
2018-09-26T19:27:58.374Z,5.27
2018-09-26T19:30:25.968Z,5.50
2018-09-26T19:32:53.612Z,4.03
2018-09-26T19:35:21.223Z,4.27
2018-09-26T19:37:48.843Z,4.23
2018-09-26T19:40:18.527Z,2.70
2018-09-26T19:42:46.116Z,3.67
2018-09-26T19:45:14.062Z,4.63
2018-09-26T19:47:42.635Z,2.80
2018-09-26T19:50:10.244Z,5.10
2018-09-26T19:52:37.962Z,2.80
2018-09-26T19:55:05.426Z,5.33
2018-09-26T19:57:33.110Z,4.13
2018-09-26T20:00:00.699Z,4.03
2018-09-26T20:02:28.230Z,4.03
2018-09-26T20:04:55.789Z,3.37
2018-09-26T20:07:23.362Z,3.80
2018-09-26T20:09:50.938Z,3.03
2018-09-26T20:12:18.497Z,4.23
2018-09-26T20:14:46.097Z,4.43
2018-09-26T20:17:13.717Z,3.57
2018-09-26T20:19:41.486Z,2.23
2018-09-26T20:22:09.194Z,2.50
2018-09-26T20:24:36.659Z,3.53
2018-09-26T20:27:04.343Z,3.13
2018-09-26T20:29:31.962Z,3.17
2018-09-26T20:31:59.388Z,2.23
2018-09-26T20:34:26.942Z,3.00
2018-09-26T20:36:54.693Z,2.93
2018-09-26T20:39:22.508Z,2.37
2018-09-26T20:41:50.116Z,2.47
2018-09-26T20:44:17.692Z,2.63
2018-09-26T20:46:45.253Z,3.00
2018-09-26T20:49:13.107Z,4.10
2018-09-26T20:51:40.644Z,2.60
2018-09-26T20:54:08.183Z,4.97
2018-09-26T20:56:35.759Z,3.97
2018-09-26T20:59:03.589Z,2.13
2018-09-26T21:01:31.120Z,4.27
2018-09-26T21:03:58.665Z,4.83
2018-09-26T21:06:26.264Z,4.87
2018-09-26T21:08:53.798Z,4.73
2018-09-26T21:11:21.350Z,2.80
2018-09-26T21:13:52.566Z,2.93
2018-09-26T21:16:20.137Z,2.03
2018-09-26T21:18:47.702Z,2.13
2018-09-26T21:21:16.140Z,3.30
2018-09-26T21:23:43.759Z,2.90
2018-09-26T21:26:11.284Z,3.13
2018-09-26T21:28:38.821Z,1.60
2018-09-26T21:31:06.622Z,3.27
2018-09-26T21:33:34.193Z,3.07
2018-09-26T21:36:01.814Z,1.73
2018-09-26T21:38:29.443Z,3.23
2018-09-26T21:40:57.008Z,2.90
2018-09-26T21:43:24.619Z,2.33
2018-09-26T21:45:52.343Z,1.53
2018-09-26T21:48:19.875Z,3.10
2018-09-26T21:50:47.600Z,2.90
2018-09-26T21:53:15.176Z,1.80
2018-09-26T21:55:42.935Z,2.80
2018-09-26T21:58:10.552Z,1.80
2018-09-26T22:00:42.715Z,2.60
2018-09-26T22:03:10.324Z,1.87
2018-09-26T22:05:37.863Z,1.70
2018-09-26T22:08:05.637Z,1.90
2018-09-26T22:10:33.291Z,1.33
2018-09-26T22:13:00.852Z,1.77
2018-09-26T22:15:28.403Z,3.87
2018-09-26T22:17:55.926Z,2.33
2018-09-26T22:20:23.475Z,2.17
2018-09-26T22:22:51.067Z,1.47
2018-09-26T22:25:18.791Z,1.87
2018-09-26T22:27:46.878Z,1.93
2018-09-26T22:30:14.446Z,1.60
2018-09-26T22:32:42.077Z,1.70
2018-09-26T22:35:09.809Z,1.03
2018-09-26T22:37:37.632Z,2.43
2018-09-26T22:40:05.360Z,1.53
2018-09-26T22:42:33.049Z,0.93
2018-09-26T22:45:00.593Z,1.87
2018-09-26T22:47:28.160Z,1.10
2018-09-26T22:49:55.824Z,1.80
2018-09-26T22:52:23.527Z,1.43
2018-09-26T22:54:51.059Z,2.07
2018-09-26T22:57:22.185Z,1.73
2018-09-26T22:59:49.719Z,1.97
2018-09-26T23:02:17.335Z,1.00
2018-09-26T23:04:44.874Z,3.13
2018-09-26T23:07:12.886Z,1.47
2018-09-26T23:09:40.579Z,1.23
2018-09-26T23:12:08.110Z,1.33
2018-09-26T23:14:35.726Z,2.87
2018-09-26T23:17:03.314Z,3.30
2018-09-26T23:19:30.883Z,0.80
2018-09-26T23:21:58.512Z,1.60
2018-09-26T23:24:26.050Z,1.57
2018-09-26T23:26:53.734Z,1.60
2018-09-26T23:29:21.296Z,2.07
2018-09-26T23:31:49.095Z,1.67
2018-09-26T23:34:16.682Z,1.47
2018-09-26T23:36:44.290Z,2.00
2018-09-26T23:39:12.128Z,1.60
2018-09-26T23:41:39.832Z,1.30
2018-09-26T23:44:07.596Z,1.83
2018-09-26T23:46:35.181Z,1.57
2018-09-26T23:49:02.752Z,1.83
2018-09-26T23:51:30.322Z,2.20
2018-09-26T23:53:58.608Z,1.87
2018-09-26T23:56:26.172Z,1.83
2018-09-26T23:58:53.779Z,1.63
